This is the latest recevied weather packets stored in our database for station/object N1IJV-10. If no packets are shown the sender has not sent any weather packets the latest 10 day(s).
| Time | Temp. | Humidity | Pressure | Rain* | Wind** | Luminosity | Snow |
|---|---|---|---|---|---|---|---|
| 1777583098 | 11.11° C | 72% | 1013.4 hPa | 0 mm | - | 16 W/m² | - |
| 1777582795 | 12.22° C | 64% | 1013.5 hPa | 0 mm | - | 18 W/m² | - |
| 1777582490 | 12.22° C | 63% | 1013.4 hPa | 0 mm | - | 23 W/m² | - |
| 1777582185 | 12.22° C | 64% | 1013.3 hPa | 0 mm | - | 41 W/m² | - |
| 1777581884 | 12.22° C | 64% | 1013.5 hPa | 0 mm | - | 57 W/m² | - |
| 1777581579 | 12.22° C | 65% | 1013.7 hPa | 0 mm | - | 74 W/m² | - |
| 1777581274 | 12.78° C | 60% | 1013.9 hPa | 0 mm | - | 63 W/m² | - |
| 1777580969 | 12.78° C | 62% | 1013.9 hPa | 0 mm | - | 58 W/m² | - |
| 1777580668 | 12.78° C | 60% | 1013.8 hPa | 0 mm | - | 80 W/m² | - |
| 1777580364 | 12.78° C | 60% | 1013.8 hPa | 0 mm | - | 118 W/m² | - |
| 1777580061 | 12.78° C | 62% | 1013.9 hPa | 0 mm | - | 119 W/m² | - |
| 1777579757 | 12.78° C | 62% | 1013.9 hPa | 0 mm | - | 106 W/m² | - |
| 1777579455 | 12.78° C | 57% | 1013.9 hPa | 0 mm | - | 82 W/m² | - |
| 1777579150 | 12.78° C | 58% | 1014.2 hPa | 0 mm | - | 140 W/m² | - |
| 1777578846 | 12.78° C | 58% | 1014.1 hPa | 0 mm | - | 131 W/m² | - |
| 1777578541 | 12.78° C | 57% | 1014.2 hPa | 0 mm | - | 126 W/m² | - |
| 1777578236 | 12.78° C | 56% | 1014.2 hPa | 0 mm | - | 89 W/m² | - |
| 1777577932 | 12.78° C | 54% | 1014.2 hPa | 0 mm | - | 82 W/m² | - |
| 1777577627 | 13.33° C | 53% | 1014.1 hPa | 0 mm | - | 95 W/m² | - |
| 1777577325 | 13.33° C | 54% | 1014.2 hPa | 0 mm | - | 124 W/m² | - |
| 1777577020 | 13.89° C | 52% | 1014.5 hPa | 0 mm | - | 151 W/m² | - |
| 1777576718 | 14.44° C | 52% | 1014.4 hPa | 0 mm | - | 169 W/m² | - |
| 1777576417 | 14.44° C | 49% | 1014.2 hPa | 0 mm | - | 213 W/m² | - |
| 1777576114 | 13.89° C | 50% | 1014.1 hPa | 0 mm | - | 232 W/m² | - |
| 1777575808 | 13.89° C | 50% | 1014.2 hPa | 0 mm | - | 200 W/m² | - |
* Rain latest hour (hover to see other rain measurements)
** Current wind speed in m/s (hover to see current wind gust speed)